KSVC/SVC METAR and TAF weather

Enter ICAO airport designator
Station Type Date Time Source
KSVC METAR 2022/12/04 11:35 UTC NOAA

KSVC 041135Z AUTO 02004KT 10SM SCT050 SCT075 BKN110 11/10 A3026 RMK AO2 T01050102


Station Type Date Time Source
KSVC Decoded METAR 2022/12/04 11:35 UTC NOAA

Silver City / Grant, NM, United States (KSVC) 32-38N 108-09W
Dec 04, 2022 - 06:35 AM EST / 2022.12.04 1135 UTC
Wind: from the NNE (020 degrees) at 5 MPH (4 KT):0
Visibility: 10 mile(s):0
Sky conditions: mostly cloudy
Temperature: 50.9 F (10.5 C)
Dew Point: 50.4 F (10.2 C)
Relative Humidity: 98%
Pressure (altimeter): 30.26 in. Hg (1024 hPa)
ob: KSVC 041135Z AUTO 02004KT 10SM SCT050 SCT075 BKN110 11/10 A3026 RMK AO2 T01050102
cycle: 11

Station Type Date Time Source
KSVC TAF UTC NOAA

Error!

Example: see airport list